createdAt,value
2023-12-30T00:00:17.976Z,2.22
2023-12-30T00:02:46.978Z,2.80
2023-12-30T00:05:13.932Z,2.25
2023-12-30T00:07:40.581Z,1.98
2023-12-30T00:10:07.986Z,2.00
2023-12-30T00:12:35.138Z,2.55
2023-12-30T00:15:02.595Z,2.33
2023-12-30T00:17:29.835Z,2.30
2023-12-30T00:19:57.823Z,2.20
2023-12-30T00:22:24.660Z,2.33
2023-12-30T00:24:51.521Z,2.38
2023-12-30T00:27:18.237Z,2.35
2023-12-30T00:29:44.907Z,2.95
2023-12-30T00:32:11.736Z,3.38
2023-12-30T00:34:38.447Z,2.47
2023-12-30T00:37:05.190Z,2.20
2023-12-30T00:39:31.949Z,2.65
2023-12-30T00:41:58.623Z,3.15
2023-12-30T00:44:25.320Z,2.53
2023-12-30T00:46:52.203Z,2.35
2023-12-30T00:49:19.005Z,2.40
2023-12-30T00:51:45.875Z,2.35
2023-12-30T00:54:12.542Z,2.30
2023-12-30T00:56:39.215Z,2.17
2023-12-30T00:59:05.905Z,2.30
2023-12-30T01:01:32.678Z,2.10
2023-12-30T01:04:00.441Z,3.30
2023-12-30T01:06:27.141Z,2.30
2023-12-30T01:08:54.024Z,2.88
2023-12-30T01:11:20.841Z,2.10
2023-12-30T01:13:47.599Z,2.03
2023-12-30T01:16:15.399Z,2.15
2023-12-30T01:18:42.369Z,2.00
2023-12-30T01:21:09.278Z,2.10
2023-12-30T01:23:35.965Z,2.35
2023-12-30T01:26:02.805Z,2.88
2023-12-30T01:28:29.482Z,2.70
2023-12-30T01:30:56.320Z,2.13
2023-12-30T01:33:23.890Z,2.30
2023-12-30T01:35:50.658Z,2.35
2023-12-30T01:38:17.909Z,2.20
2023-12-30T01:40:44.763Z,2.00
2023-12-30T01:43:28.209Z,2.17
2023-12-30T01:45:58.227Z,1.90
2023-12-30T01:48:25.836Z,2.53
2023-12-30T01:50:53.504Z,2.95
2023-12-30T01:53:21.010Z,2.47
2023-12-30T01:55:51.621Z,2.63
2023-12-30T02:00:49.959Z,2.63
2023-12-30T02:03:17.224Z,2.13
2023-12-30T02:05:44.069Z,2.10
2023-12-30T02:08:10.907Z,2.08
2023-12-30T02:10:38.022Z,2.20
2023-12-30T02:13:05.161Z,2.15
2023-12-30T02:15:32.081Z,2.95
2023-12-30T02:17:58.927Z,2.72
2023-12-30T02:20:26.184Z,2.33
2023-12-30T02:22:52.945Z,2.42
2023-12-30T02:25:19.725Z,3.80
2023-12-30T02:27:46.911Z,2.90
2023-12-30T02:30:14.642Z,3.55
2023-12-30T02:32:42.043Z,2.13
2023-12-30T02:35:09.305Z,2.13
2023-12-30T02:37:36.035Z,2.60
2023-12-30T02:40:03.016Z,2.42
2023-12-30T02:42:29.712Z,2.38
2023-12-30T02:44:56.459Z,2.30
2023-12-30T02:47:23.163Z,2.00
2023-12-30T02:49:49.813Z,2.88
2023-12-30T02:52:16.708Z,2.00
2023-12-30T02:54:43.477Z,2.30
2023-12-30T02:57:10.229Z,2.10
2023-12-30T02:59:36.985Z,2.40
2023-12-30T03:02:03.796Z,2.00
2023-12-30T03:04:30.710Z,2.53
2023-12-30T03:06:57.556Z,2.30
2023-12-30T03:09:24.681Z,2.30
2023-12-30T03:11:51.302Z,2.30
2023-12-30T03:14:18.021Z,2.67
2023-12-30T03:16:44.606Z,2.45
2023-12-30T03:19:12.669Z,3.45
2023-12-30T03:21:39.506Z,2.22
2023-12-30T03:24:06.452Z,2.08
2023-12-30T03:26:33.064Z,2.03
2023-12-30T03:28:59.664Z,3.00
2023-12-30T03:31:28.790Z,2.42
2023-12-30T03:33:56.641Z,2.13
2023-12-30T03:36:23.624Z,2.30
2023-12-30T03:38:53.482Z,2.42
2023-12-30T03:41:20.311Z,2.90
2023-12-30T03:43:47.308Z,2.40
2023-12-30T03:46:14.196Z,2.38
2023-12-30T03:48:41.031Z,2.65
2023-12-30T03:51:08.165Z,2.33
2023-12-30T03:53:34.844Z,2.20
2023-12-30T03:56:01.769Z,2.13
2023-12-30T03:58:28.964Z,2.30
2023-12-30T04:00:55.947Z,2.40
2023-12-30T04:03:22.785Z,2.42
2023-12-30T04:05:49.746Z,2.28
2023-12-30T04:08:16.498Z,2.60
2023-12-30T04:10:43.137Z,2.50
2023-12-30T04:13:10.855Z,3.05
2023-12-30T04:15:38.633Z,2.40
2023-12-30T04:18:06.156Z,2.45
2023-12-30T04:20:33.299Z,2.05
2023-12-30T04:23:00.996Z,2.50
2023-12-30T04:25:28.016Z,2.28
2023-12-30T04:27:54.749Z,2.55
2023-12-30T04:30:21.499Z,2.80
2023-12-30T04:32:48.354Z,2.65
2023-12-30T04:35:15.197Z,2.10
2023-12-30T04:37:41.901Z,2.13
2023-12-30T04:40:09.124Z,2.25
2023-12-30T04:42:36.719Z,2.58
2023-12-30T04:45:04.201Z,3.80
2023-12-30T04:47:31.139Z,2.20
2023-12-30T04:49:58.018Z,3.40
2023-12-30T04:52:24.746Z,3.40
2023-12-30T04:54:51.549Z,3.50
2023-12-30T04:57:18.265Z,3.10
2023-12-30T04:59:44.886Z,2.83
2023-12-30T05:02:11.489Z,2.50
2023-12-30T05:04:38.308Z,2.67
2023-12-30T05:07:05.287Z,4.28
2023-12-30T05:09:35.496Z,2.60
2023-12-30T05:12:02.290Z,3.03
2023-12-30T05:14:28.948Z,2.65
2023-12-30T05:16:55.578Z,2.22
2023-12-30T05:19:22.363Z,2.70
2023-12-30T05:21:52.784Z,2.22
2023-12-30T05:24:19.814Z,3.65
2023-12-30T05:26:47.175Z,2.80
2023-12-30T05:29:13.827Z,2.30
2023-12-30T05:31:40.500Z,2.55
2023-12-30T05:34:08.295Z,3.22
2023-12-30T05:36:38.339Z,2.45
2023-12-30T05:39:05.059Z,3.80
2023-12-30T05:41:31.789Z,2.45
2023-12-30T05:43:58.636Z,2.90
2023-12-30T05:46:25.918Z,2.55
2023-12-30T05:48:52.728Z,3.15
2023-12-30T05:51:21.653Z,2.70
2023-12-30T05:53:49.076Z,2.47
2023-12-30T05:56:23.435Z,2.67
2023-12-30T05:58:51.042Z,2.85
2023-12-30T06:01:17.737Z,2.50
2023-12-30T06:03:44.584Z,3.30
2023-12-30T06:06:11.438Z,2.50
2023-12-30T06:08:38.225Z,2.50
2023-12-30T06:11:05.037Z,2.75
2023-12-30T06:13:33.228Z,3.60
2023-12-30T06:16:00.098Z,2.63
2023-12-30T06:18:31.928Z,2.47
2023-12-30T06:20:59.940Z,2.83
2023-12-30T06:23:30.119Z,2.63
2023-12-30T06:25:56.852Z,2.53
2023-12-30T06:28:27.519Z,2.22
2023-12-30T06:30:55.061Z,2.22
2023-12-30T06:33:23.443Z,2.70
2023-12-30T06:35:50.890Z,2.80
2023-12-30T06:38:18.197Z,2.58
2023-12-30T06:40:46.875Z,2.72
2023-12-30T06:43:14.369Z,3.65
2023-12-30T06:45:41.073Z,2.47
2023-12-30T06:48:08.077Z,2.70
2023-12-30T06:50:34.778Z,2.83
2023-12-30T06:53:02.073Z,3.25
2023-12-30T06:55:35.228Z,2.63
2023-12-30T06:58:09.432Z,2.95
2023-12-30T07:00:37.165Z,2.55
2023-12-30T07:03:04.727Z,2.78
2023-12-30T07:05:37.436Z,2.42
2023-12-30T07:08:04.767Z,2.65
2023-12-30T07:10:31.698Z,3.00
2023-12-30T07:12:58.480Z,3.03
2023-12-30T07:15:25.148Z,3.38
2023-12-30T07:17:51.929Z,2.42
2023-12-30T07:20:18.651Z,3.20
2023-12-30T07:22:45.565Z,2.58
2023-12-30T07:25:12.369Z,2.88
2023-12-30T07:27:39.151Z,2.60
2023-12-30T07:30:06.548Z,2.83
2023-12-30T07:32:33.332Z,2.83
2023-12-30T07:35:01.007Z,2.58
2023-12-30T07:37:28.776Z,2.50
2023-12-30T07:39:55.881Z,2.40
2023-12-30T07:42:23.965Z,2.40
2023-12-30T07:44:52.362Z,2.60
2023-12-30T07:47:19.724Z,3.58
2023-12-30T07:49:49.155Z,2.50
2023-12-30T07:52:15.853Z,2.50
2023-12-30T07:54:42.578Z,3.22
2023-12-30T07:57:09.358Z,2.42
2023-12-30T07:59:36.001Z,2.67
2023-12-30T08:02:03.929Z,2.50
2023-12-30T08:04:30.743Z,3.13
2023-12-30T08:06:57.490Z,2.95
2023-12-30T08:09:24.305Z,3.22
2023-12-30T08:11:59.209Z,3.45
2023-12-30T08:14:29.684Z,2.80
2023-12-30T08:16:56.638Z,3.03
2023-12-30T08:19:23.401Z,2.70
2023-12-30T08:21:50.440Z,2.38
2023-12-30T08:24:20.354Z,3.00
2023-12-30T08:26:47.569Z,3.05
2023-12-30T08:29:15.626Z,5.95
2023-12-30T08:31:51.365Z,3.60
2023-12-30T08:34:18.562Z,3.38
2023-12-30T08:36:46.036Z,2.90
2023-12-30T08:39:13.195Z,3.03
2023-12-30T08:41:41.716Z,4.15
2023-12-30T08:44:08.600Z,2.97
2023-12-30T08:46:36.352Z,2.97
2023-12-30T08:49:06.728Z,2.90
2023-12-30T08:51:35.823Z,3.22
2023-12-30T08:54:02.860Z,2.58
2023-12-30T08:56:35.645Z,3.05
2023-12-30T08:59:02.779Z,2.40
2023-12-30T09:01:29.918Z,2.75
2023-12-30T09:03:57.382Z,2.45
2023-12-30T09:06:24.243Z,2.85
2023-12-30T09:08:51.050Z,3.78
2023-12-30T09:11:21.849Z,2.50
2023-12-30T09:13:50.294Z,2.60
2023-12-30T09:16:17.151Z,2.67
2023-12-30T09:18:44.459Z,3.10
2023-12-30T09:21:11.339Z,3.10
2023-12-30T09:23:38.752Z,3.50
2023-12-30T09:26:05.839Z,2.70
2023-12-30T09:28:33.444Z,3.08
2023-12-30T09:31:00.900Z,2.67
2023-12-30T09:33:27.869Z,3.20
2023-12-30T09:35:56.020Z,2.42
2023-12-30T09:38:26.553Z,2.60
2023-12-30T09:40:54.894Z,2.60
2023-12-30T09:43:26.979Z,3.92
2023-12-30T09:45:55.708Z,2.50
2023-12-30T09:48:28.628Z,2.75
2023-12-30T09:50:57.001Z,2.80
2023-12-30T09:53:26.116Z,3.38
2023-12-30T09:55:53.770Z,2.55
2023-12-30T09:58:21.785Z,2.20
2023-12-30T10:00:48.515Z,3.08
2023-12-30T10:03:16.801Z,2.28
2023-12-30T10:05:43.784Z,2.40
2023-12-30T10:08:11.144Z,2.35
2023-12-30T10:10:43.592Z,2.55
2023-12-30T10:13:13.251Z,2.80
2023-12-30T10:15:41.718Z,2.47
2023-12-30T10:18:08.932Z,2.80
2023-12-30T10:20:42.359Z,2.05
2023-12-30T10:23:09.215Z,2.40
2023-12-30T10:25:36.332Z,2.30
2023-12-30T10:28:03.940Z,2.97
2023-12-30T10:30:32.051Z,2.53
2023-12-30T10:33:16.098Z,2.90
2023-12-30T10:35:44.044Z,3.00
2023-12-30T10:38:11.998Z,3.40
2023-12-30T10:40:42.258Z,2.85
2023-12-30T10:43:10.071Z,2.85
2023-12-30T10:45:37.170Z,3.17
2023-12-30T10:48:07.787Z,3.03
2023-12-30T10:50:38.560Z,3.03
2023-12-30T10:53:16.560Z,3.00
2023-12-30T10:55:51.488Z,3.03
2023-12-30T10:58:21.060Z,2.90
2023-12-30T11:00:58.378Z,2.57
2023-12-30T11:03:26.859Z,3.40
2023-12-30T11:06:24.260Z,2.67
2023-12-30T11:08:59.002Z,2.58
2023-12-30T11:11:26.295Z,2.47
2023-12-30T11:13:58.219Z,2.42
2023-12-30T11:16:25.368Z,2.45
2023-12-30T11:18:59.291Z,2.63
2023-12-30T11:21:47.855Z,2.63
2023-12-30T11:24:16.377Z,2.33
2023-12-30T11:26:46.730Z,2.50
2023-12-30T11:29:17.362Z,2.55
2023-12-30T11:31:46.352Z,2.40
2023-12-30T11:34:14.683Z,3.10
2023-12-30T11:36:42.704Z,2.70
2023-12-30T11:39:10.247Z,2.35
2023-12-30T11:41:37.066Z,2.90
2023-12-30T11:44:07.106Z,2.38
2023-12-30T11:46:34.053Z,2.63
2023-12-30T11:49:00.902Z,2.42
2023-12-30T11:51:33.842Z,2.50
2023-12-30T11:54:06.831Z,2.40
2023-12-30T11:56:34.191Z,3.03
2023-12-30T11:59:01.884Z,3.05
2023-12-30T12:01:28.781Z,2.40
2023-12-30T12:03:56.227Z,2.55
2023-12-30T12:06:23.012Z,2.67
2023-12-30T12:08:49.783Z,3.20
2023-12-30T12:11:16.584Z,3.53
2023-12-30T12:13:43.552Z,2.67
2023-12-30T12:16:10.297Z,2.38
2023-12-30T12:18:37.476Z,2.70
2023-12-30T12:21:12.878Z,3.72
2023-12-30T12:23:41.882Z,3.00
2023-12-30T12:26:08.877Z,3.08
2023-12-30T12:28:35.791Z,3.28
2023-12-30T12:31:03.652Z,2.90
2023-12-30T12:33:31.303Z,2.70
2023-12-30T12:35:58.589Z,2.45
2023-12-30T12:38:25.429Z,2.75
2023-12-30T12:40:52.405Z,2.95
2023-12-30T12:43:19.720Z,3.63
2023-12-30T12:45:46.669Z,2.95
2023-12-30T12:48:14.537Z,3.10
2023-12-30T12:50:41.264Z,3.65
2023-12-30T12:53:07.916Z,3.42
2023-12-30T12:55:35.306Z,3.20
2023-12-30T12:58:02.206Z,3.58
2023-12-30T13:00:28.897Z,2.90
2023-12-30T13:02:55.716Z,3.13
2023-12-30T13:05:23.622Z,3.15
2023-12-30T13:07:50.781Z,3.10
2023-12-30T13:10:36.125Z,3.15
2023-12-30T13:13:03.613Z,3.35
2023-12-30T13:15:30.741Z,3.15
2023-12-30T13:18:00.672Z,3.65
2023-12-30T13:20:28.626Z,3.13
2023-12-30T13:22:58.992Z,3.58
2023-12-30T13:25:31.895Z,3.63
2023-12-30T13:27:59.535Z,3.00
2023-12-30T13:30:27.044Z,3.60
2023-12-30T13:33:02.185Z,3.70
2023-12-30T13:35:35.268Z,3.90
2023-12-30T13:38:07.546Z,3.58
2023-12-30T13:40:34.883Z,3.58
2023-12-30T13:43:08.955Z,3.55
2023-12-30T13:45:38.826Z,3.80
2023-12-30T13:48:07.000Z,4.25
2023-12-30T13:50:52.737Z,4.00
2023-12-30T13:53:22.474Z,3.58
2023-12-30T13:55:49.406Z,4.18
2023-12-30T13:58:16.685Z,3.45
2023-12-30T14:00:44.218Z,3.60
2023-12-30T14:03:11.157Z,3.95
2023-12-30T14:05:42.070Z,4.75
2023-12-30T14:08:27.324Z,4.30
2023-12-30T14:10:55.379Z,4.80
2023-12-30T14:13:24.250Z,4.82
2023-12-30T14:15:52.577Z,4.47
2023-12-30T14:18:20.184Z,5.57
2023-12-30T14:20:47.926Z,3.88
2023-12-30T14:23:14.973Z,4.30
2023-12-30T14:25:42.426Z,3.55
2023-12-30T14:28:10.833Z,3.35
2023-12-30T14:30:38.334Z,4.63
2023-12-30T14:33:06.683Z,4.20
2023-12-30T14:35:33.877Z,4.40
2023-12-30T14:38:02.651Z,4.00
2023-12-30T14:40:29.947Z,3.85
2023-12-30T14:42:56.935Z,4.28
2023-12-30T14:45:24.064Z,4.10
2023-12-30T14:47:51.117Z,3.95
2023-12-30T14:50:17.975Z,5.88
2023-12-30T14:52:44.807Z,4.90
2023-12-30T14:55:12.475Z,5.72
2023-12-30T14:57:40.700Z,6.50
2023-12-30T15:00:15.488Z,5.38
2023-12-30T15:02:43.864Z,5.55
2023-12-30T15:05:15.211Z,5.15
2023-12-30T15:07:43.758Z,5.68
2023-12-30T15:10:12.095Z,6.28
2023-12-30T15:12:39.550Z,5.80
2023-12-30T15:15:08.076Z,6.68
2023-12-30T15:17:34.935Z,8.10
2023-12-30T15:20:01.933Z,9.32
2023-12-30T15:22:30.748Z,9.00
2023-12-30T15:24:58.188Z,10.95
2023-12-30T15:27:25.049Z,10.00
2023-12-30T15:29:51.911Z,11.30
2023-12-30T15:32:18.947Z,9.70
2023-12-30T15:34:45.823Z,9.25
2023-12-30T15:37:15.578Z,9.18
2023-12-30T15:39:42.247Z,11.90
2023-12-30T15:42:09.228Z,11.20
2023-12-30T15:44:38.855Z,14.15
2023-12-30T15:47:11.035Z,11.15
2023-12-30T15:49:39.007Z,10.73
2023-12-30T15:52:11.068Z,11.00
2023-12-30T15:54:40.593Z,10.38
2023-12-30T15:57:07.615Z,10.73
2023-12-30T15:59:34.438Z,19.60
2023-12-30T16:02:01.635Z,12.45
2023-12-30T16:04:28.961Z,11.52
2023-12-30T16:06:55.808Z,15.32
2023-12-30T16:09:22.863Z,11.25
2023-12-30T16:11:50.212Z,16.73
2023-12-30T16:14:17.505Z,11.15
2023-12-30T16:16:47.782Z,11.55
2023-12-30T16:21:43.329Z,13.18
2023-12-30T16:24:10.190Z,11.75
2023-12-30T16:26:36.981Z,11.00
2023-12-30T16:29:04.474Z,9.90
2023-12-30T16:31:31.692Z,9.32
2023-12-30T16:33:58.816Z,8.43
2023-12-30T16:36:25.976Z,9.57
2023-12-30T16:38:53.138Z,8.85
2023-12-30T16:41:19.893Z,8.98
2023-12-30T16:43:46.732Z,8.95
2023-12-30T16:46:13.688Z,8.07
2023-12-30T16:48:40.874Z,8.25
2023-12-30T16:51:07.771Z,8.55
2023-12-30T16:53:34.433Z,8.35
2023-12-30T16:56:01.426Z,8.15
2023-12-30T16:58:32.032Z,8.75
2023-12-30T17:01:02.832Z,9.13
2023-12-30T17:03:30.140Z,9.40
2023-12-30T17:05:56.921Z,9.90
2023-12-30T17:08:23.703Z,10.30
2023-12-30T17:10:50.437Z,11.23
2023-12-30T17:13:17.162Z,27.45
2023-12-30T17:15:44.279Z,25.38
2023-12-30T17:18:11.041Z,9.85
2023-12-30T17:20:37.689Z,8.60
2023-12-30T17:23:06.787Z,10.18
2023-12-30T17:25:33.537Z,8.88
2023-12-30T17:28:01.110Z,10.55
2023-12-30T17:30:28.798Z,7.85
2023-12-30T17:32:55.879Z,7.55
2023-12-30T17:35:24.674Z,7.40
2023-12-30T17:37:51.588Z,9.10
2023-12-30T17:40:19.407Z,10.93
2023-12-30T17:42:47.044Z,10.20
2023-12-30T17:45:14.228Z,14.75
2023-12-30T17:47:41.027Z,9.55
2023-12-30T17:50:11.109Z,14.45
2023-12-30T17:52:38.341Z,12.40
2023-12-30T17:55:05.986Z,14.38
2023-12-30T17:57:32.665Z,9.65
2023-12-30T17:59:59.638Z,7.53
2023-12-30T18:02:26.382Z,8.65
2023-12-30T18:04:53.383Z,8.35
2023-12-30T18:07:20.178Z,8.88
2023-12-30T18:09:48.269Z,7.97
2023-12-30T18:12:15.182Z,7.03
2023-12-30T18:14:42.012Z,21.98
2023-12-30T18:17:09.079Z,8.88
2023-12-30T18:19:35.895Z,7.10
2023-12-30T18:22:02.962Z,6.80
2023-12-30T18:24:30.108Z,5.95
2023-12-30T18:26:57.050Z,5.90
2023-12-30T18:29:24.216Z,5.78
2023-12-30T18:31:51.971Z,5.57
2023-12-30T18:34:19.330Z,6.30
2023-12-30T18:36:47.162Z,6.00
2023-12-30T18:39:14.216Z,7.13
2023-12-30T18:41:41.046Z,7.78
2023-12-30T18:44:07.914Z,5.18
2023-12-30T18:46:37.684Z,5.47
2023-12-30T18:49:04.716Z,6.50
2023-12-30T18:51:31.474Z,6.55
2023-12-30T18:53:58.216Z,5.90
2023-12-30T18:56:24.873Z,5.85
2023-12-30T18:58:51.729Z,5.50
2023-12-30T19:01:18.576Z,5.60
2023-12-30T19:03:45.454Z,5.13
2023-12-30T19:06:12.225Z,5.72
2023-12-30T19:08:39.805Z,5.60
2023-12-30T19:11:07.067Z,5.07
2023-12-30T19:13:35.368Z,5.75
2023-12-30T19:16:03.738Z,5.38
2023-12-30T19:18:30.604Z,7.30
2023-12-30T19:20:58.220Z,7.78
2023-12-30T19:23:25.087Z,11.23
2023-12-30T19:25:51.738Z,7.82
2023-12-30T19:28:18.532Z,5.50
2023-12-30T19:30:45.271Z,5.70
2023-12-30T19:33:13.728Z,6.00
2023-12-30T19:35:42.674Z,7.10
2023-12-30T19:38:09.758Z,5.35
2023-12-30T19:40:36.636Z,4.97
2023-12-30T19:43:05.166Z,4.82
2023-12-30T19:45:32.114Z,4.40
2023-12-30T19:48:00.123Z,4.20
2023-12-30T19:50:29.189Z,4.40
2023-12-30T19:52:56.373Z,4.43
2023-12-30T19:55:23.230Z,4.55
2023-12-30T19:57:49.933Z,4.70
2023-12-30T20:00:17.188Z,4.10
2023-12-30T20:02:44.704Z,7.22
2023-12-30T20:05:15.683Z,4.90
2023-12-30T20:07:42.766Z,7.10
2023-12-30T20:10:12.853Z,6.57
2023-12-30T20:12:40.034Z,5.85
2023-12-30T20:15:08.410Z,5.80
2023-12-30T20:17:36.883Z,5.28
2023-12-30T20:20:07.134Z,4.55
2023-12-30T20:22:34.342Z,4.68
2023-12-30T20:25:01.094Z,5.22
2023-12-30T20:27:28.817Z,4.70
2023-12-30T20:29:55.650Z,4.68
2023-12-30T20:32:23.202Z,4.88
2023-12-30T20:34:51.047Z,5.60
2023-12-30T20:37:20.588Z,5.95
2023-12-30T20:39:47.333Z,5.85
2023-12-30T20:42:14.812Z,4.80
2023-12-30T20:44:41.464Z,5.00
2023-12-30T20:47:11.275Z,4.75
2023-12-30T20:49:39.474Z,5.03
2023-12-30T20:52:06.634Z,4.00
2023-12-30T20:54:33.895Z,5.72
2023-12-30T20:57:00.916Z,5.32
2023-12-30T20:59:27.666Z,4.55
2023-12-30T21:01:54.384Z,5.68
2023-12-30T21:04:21.217Z,6.07
2023-12-30T21:06:47.911Z,4.40
2023-12-30T21:09:15.734Z,3.80
2023-12-30T21:11:43.206Z,4.45
2023-12-30T21:14:10.041Z,5.32
2023-12-30T21:16:37.095Z,8.88
2023-12-30T21:19:04.383Z,12.20
2023-12-30T21:21:31.308Z,11.10
2023-12-30T21:23:58.141Z,8.50
2023-12-30T21:26:25.865Z,5.82
2023-12-30T21:28:52.636Z,4.05
2023-12-30T21:31:19.460Z,4.07
2023-12-30T21:33:46.252Z,4.25
2023-12-30T21:36:15.889Z,4.15
2023-12-30T21:38:44.398Z,5.88
2023-12-30T21:41:12.935Z,4.10
2023-12-30T21:43:42.445Z,5.40
2023-12-30T21:46:09.190Z,4.85
2023-12-30T21:48:35.945Z,4.15
2023-12-30T21:51:07.510Z,5.07
2023-12-30T21:53:34.228Z,4.07
2023-12-30T21:56:00.848Z,5.20
2023-12-30T21:58:27.496Z,4.60
2023-12-30T22:00:54.344Z,5.18
2023-12-30T22:03:21.151Z,5.03
2023-12-30T22:05:47.938Z,4.95
2023-12-30T22:08:15.062Z,4.28
2023-12-30T22:10:41.795Z,4.30
